Pagrindinis puslapis
METAR-TAF:

METAR-TAF

Oro uostai :

Miuncheno oro uostas

Miunchenas, Vokietija

platuma: 48-21N, ilguma: 011-47E, Aukštis: 453 m

Dabartinis oras

Ataskaita buvo paskelbta 39 minutes, ne 09:50 UTC
Vėjas 5 kt nuo kintamojo kryptimis
Temperatūra 15°C
Drėgmė 48%
Slėgis 1020 hPa
Matomumas 10 km arba daugiau
Mažai debesys ne aukštis 4400 ft

METAR: EDDM 310950Z VRB05KT 9999 FEW044 15/04 Q1020 NOSIG

Laikas: 12:29 (10:29 UTC)

Prognozė

Ataskaita buvo paskelbta 5 valandos ir 29 minutes, ne 05:00 UTC
Prognozė galioja nuo 31 metu 06 UTC su 01 metu 12 UTC
Vėjas 2 kt iš Šiaurės Rytų
Matomumas 10 km arba daugiau
nėra debesų žemiau 1500 m ir nėra kamuolinių lietaus debesų
Tapsmas
nuo 31 metu 07 UTC su 31 metu 09 UTC
Vėjas 8 kt iš Šiaurės Rytų
Tapsmas
nuo 31 metu 19 UTC su 31 metu 21 UTC
Vėjas 3 kt nuo kintamojo kryptimis
Tapsmas
nuo 01 metu 07 UTC su 01 metu 09 UTC
Vėjas 8 kt iš Rytų

TAF: EDDM 310500Z 3106/0112 04002KT CAVOK BECMG 3107/3109 04008KT BECMG 3119/3121 VRB03KT BECMG 0107/0109 08008KT

Orai ataskaitas ir orų prognozės (METAR, TAF).

turimą stotys yra geltonos ir raudonos taškus žemėlapyje.

Perkelti pele per norėdami pamatyti stoties vardą.

Tada spustelėkite, norėdami matyti oro stebėjimo ir prognozės.

Norėdami pakeisti žemėlapį: spustelėkite ant žalios mygtukų su juodo kryžiaus žemyn,; žalią mygtuką su brūkšneliu, jei norite nutolinti; arba žalių rodyklių gretimoms žemėlapius.


METAR-TAF: